createdAt,value
2023-05-22T00:04:47.170Z,11.70
2023-05-22T00:09:46.773Z,11.60
2023-05-22T00:14:53.361Z,11.50
2023-05-22T00:19:51.672Z,11.50
2023-05-22T00:24:48.950Z,11.20
2023-05-22T00:29:46.496Z,11.50
2023-05-22T00:34:43.986Z,11.60
2023-05-22T00:39:41.426Z,11.30
2023-05-22T00:44:39.088Z,10.90
2023-05-22T00:49:36.820Z,10.80
2023-05-22T00:54:34.486Z,11.10
2023-05-22T00:59:32.047Z,11.20
2023-05-22T01:04:32.876Z,10.90
2023-05-22T01:09:30.904Z,10.90
2023-05-22T01:14:37.100Z,11.00
2023-05-22T01:20:15.916Z,10.80
2023-05-22T01:25:50.495Z,11.20
2023-05-22T01:30:50.431Z,11.40
2023-05-22T01:35:55.981Z,11.30
2023-05-22T01:40:55.330Z,11.30
2023-05-22T01:45:52.809Z,10.80
2023-05-22T01:50:53.391Z,10.50
2023-05-22T01:56:02.724Z,10.50
2023-05-22T02:01:01.639Z,10.40
2023-05-22T02:06:03.489Z,10.70
2023-05-22T02:11:02.344Z,10.40
2023-05-22T02:16:00.882Z,10.70
2023-05-22T02:20:59.439Z,10.50
2023-05-22T02:25:56.963Z,10.30
2023-05-22T02:30:54.571Z,10.30
2023-05-22T02:35:51.930Z,10.20
2023-05-22T02:40:49.928Z,10.40
2023-05-22T02:45:47.518Z,10.60
2023-05-22T02:50:44.900Z,10.70
2023-05-22T02:55:42.432Z,10.90
2023-05-22T03:00:39.755Z,11.30
2023-05-22T03:05:38.652Z,11.30
2023-05-22T03:10:35.853Z,11.00
2023-05-22T03:15:33.231Z,11.00
2023-05-22T03:20:31.650Z,11.00
2023-05-22T03:25:31.363Z,11.10
2023-05-22T03:30:28.614Z,10.90
2023-05-22T03:35:26.651Z,11.00
2023-05-22T03:40:24.940Z,10.80
2023-05-22T03:45:26.954Z,10.60
2023-05-22T03:50:24.282Z,10.50
2023-05-22T03:55:21.860Z,10.60
2023-05-22T04:00:23.581Z,10.50
2023-05-22T04:05:23.594Z,10.40
2023-05-22T04:10:22.832Z,10.60
2023-05-22T04:15:22.660Z,10.90
2023-05-22T04:20:22.328Z,10.70
2023-05-22T04:25:19.480Z,10.90
2023-05-22T04:30:18.659Z,11.30
2023-05-22T04:35:18.785Z,11.20
2023-05-22T04:40:16.099Z,11.30
2023-05-22T04:45:14.168Z,11.50
2023-05-22T04:50:12.164Z,11.90
2023-05-22T04:55:12.447Z,12.10
2023-05-22T05:00:11.007Z,12.20
2023-05-22T05:05:09.279Z,12.40
2023-05-22T05:10:07.591Z,12.70
2023-05-22T05:15:05.660Z,13.10
2023-05-22T05:20:06.535Z,13.20
2023-05-22T05:25:05.473Z,13.50
2023-05-22T05:30:02.996Z,13.60
2023-05-22T05:35:00.286Z,13.50
2023-05-22T05:39:57.718Z,13.20
2023-05-22T05:44:55.214Z,13.40
2023-05-22T05:49:52.414Z,13.70
2023-05-22T05:54:49.783Z,14.00
2023-05-22T05:59:47.171Z,14.20
2023-05-22T06:04:50.624Z,14.20
2023-05-22T06:09:47.975Z,14.30
2023-05-22T06:14:45.279Z,14.40
2023-05-22T06:19:43.256Z,14.50
2023-05-22T06:24:40.686Z,14.90
2023-05-22T06:29:38.094Z,14.90
2023-05-22T06:34:36.010Z,14.90
2023-05-22T06:39:33.465Z,15.00
2023-05-22T06:44:30.741Z,14.80
2023-05-22T06:49:27.944Z,15.00
2023-05-22T06:54:28.730Z,15.40
2023-05-22T06:59:26.100Z,15.80
2023-05-22T07:04:23.429Z,15.90
2023-05-22T07:09:20.898Z,16.20
2023-05-22T07:14:18.394Z,16.50
2023-05-22T07:19:16.063Z,16.70
2023-05-22T07:24:14.140Z,17.10
2023-05-22T07:29:11.420Z,17.30
2023-05-22T07:34:10.368Z,17.60
2023-05-22T07:39:08.506Z,17.50
2023-05-22T07:44:05.876Z,17.70
2023-05-22T07:49:03.489Z,17.80
2023-05-22T07:54:00.927Z,18.20
2023-05-22T07:58:58.313Z,18.50
2023-05-22T08:03:55.998Z,18.70
2023-05-22T08:08:53.776Z,18.80
2023-05-22T08:13:51.198Z,18.90
2023-05-22T08:18:48.608Z,19.10
2023-05-22T08:23:45.928Z,19.20
2023-05-22T08:28:44.577Z,19.40
2023-05-22T08:33:41.894Z,20.10
2023-05-22T08:38:39.229Z,20.00
2023-05-22T08:43:37.246Z,20.50
2023-05-22T08:48:34.628Z,20.50
2023-05-22T08:53:37.658Z,20.50
2023-05-22T08:58:38.635Z,20.60
2023-05-22T09:03:37.082Z,21.30
2023-05-22T09:08:34.514Z,21.70
2023-05-22T09:13:32.542Z,21.50
2023-05-22T09:18:30.396Z,21.10
2023-05-22T09:23:30.580Z,21.30
2023-05-22T09:28:32.389Z,21.40
2023-05-22T09:33:31.127Z,21.70
2023-05-22T09:38:30.274Z,22.50
2023-05-22T09:43:27.767Z,23.00
2023-05-22T09:48:25.672Z,23.10
2023-05-22T09:53:31.232Z,23.30
2023-05-22T09:58:33.713Z,23.30
2023-05-22T10:03:33.615Z,23.30
2023-05-22T10:08:36.078Z,23.60
2023-05-22T10:13:36.381Z,24.10
2023-05-22T10:18:34.138Z,24.20
2023-05-22T10:23:31.595Z,24.40
2023-05-22T10:28:38.777Z,24.70
2023-05-22T10:33:45.028Z,24.30
2023-05-22T10:39:15.461Z,24.50
2023-05-22T10:44:13.078Z,24.30
2023-05-22T10:49:20.121Z,24.70
2023-05-22T10:54:17.367Z,24.90
2023-05-22T10:59:16.906Z,24.90
2023-05-22T11:04:18.961Z,25.30
2023-05-22T11:09:33.383Z,25.10
2023-05-22T11:14:31.052Z,24.70
2023-05-22T11:19:28.562Z,25.30
2023-05-22T11:24:26.154Z,25.50
2023-05-22T11:29:24.535Z,25.40
2023-05-22T11:34:21.862Z,24.80
2023-05-22T11:39:19.260Z,25.30
2023-05-22T11:44:16.721Z,25.50
2023-05-22T11:49:17.471Z,26.10
2023-05-22T11:54:17.745Z,26.60
2023-05-22T11:59:15.072Z,26.70
2023-05-22T12:04:12.635Z,26.70
2023-05-22T12:09:10.120Z,27.40
2023-05-22T12:14:12.490Z,27.10
2023-05-22T12:19:12.107Z,27.00
2023-05-22T12:24:10.773Z,26.40
2023-05-22T12:29:08.894Z,26.10
2023-05-22T12:34:08.376Z,26.60
2023-05-22T12:39:27.993Z,26.80
2023-05-22T12:44:26.759Z,26.30
2023-05-22T12:49:24.035Z,26.80
2023-05-22T12:54:21.497Z,27.00
2023-05-22T12:59:20.765Z,26.90
2023-05-22T13:04:18.363Z,26.20
2023-05-22T13:09:18.006Z,26.20
2023-05-22T13:14:16.319Z,25.60
2023-05-22T13:19:13.572Z,26.00
2023-05-22T13:24:13.509Z,26.30
2023-05-22T13:29:13.442Z,26.90
2023-05-22T13:34:11.016Z,27.10
2023-05-22T13:39:08.567Z,27.10
2023-05-22T13:44:05.806Z,27.10
2023-05-22T13:49:06.376Z,26.70
2023-05-22T13:54:04.244Z,26.90
2023-05-22T13:59:01.624Z,26.50
2023-05-22T14:03:59.214Z,26.00
2023-05-22T14:08:56.607Z,25.10
2023-05-22T14:13:54.382Z,25.50
2023-05-22T14:18:54.208Z,26.50
2023-05-22T14:23:51.855Z,26.50
2023-05-22T14:28:49.380Z,27.00
2023-05-22T14:33:46.858Z,27.10
2023-05-22T14:38:44.281Z,26.30
2023-05-22T14:43:41.581Z,25.60
2023-05-22T14:48:38.913Z,25.00
2023-05-22T14:53:36.385Z,25.30
2023-05-22T14:58:33.617Z,25.40
2023-05-22T15:03:33.863Z,25.50
2023-05-22T15:08:31.218Z,25.40
2023-05-22T15:13:28.602Z,26.30
2023-05-22T15:18:27.507Z,26.50
2023-05-22T15:23:26.681Z,25.90
2023-05-22T15:28:23.967Z,25.90
2023-05-22T15:33:21.874Z,25.60
2023-05-22T15:38:20.233Z,25.70
2023-05-22T15:43:17.613Z,25.60
2023-05-22T15:48:16.678Z,25.70
2023-05-22T15:53:13.990Z,25.90
2023-05-22T15:58:11.455Z,25.40
2023-05-22T16:03:10.298Z,24.90
2023-05-22T16:08:11.639Z,25.00
2023-05-22T16:13:10.843Z,24.60
2023-05-22T16:18:09.188Z,24.70
2023-05-22T16:23:06.526Z,24.50
2023-05-22T16:28:05.624Z,24.00
2023-05-22T16:33:03.342Z,24.00
2023-05-22T16:38:00.773Z,23.50
2023-05-22T16:42:58.295Z,23.30
2023-05-22T16:47:56.188Z,23.10
2023-05-22T16:52:53.865Z,22.90
2023-05-22T16:57:51.341Z,22.90
2023-05-22T17:02:49.156Z,22.90
2023-05-22T17:07:46.742Z,22.90
2023-05-22T17:12:43.956Z,22.90
2023-05-22T17:17:41.428Z,22.80
2023-05-22T17:22:39.191Z,22.80
2023-05-22T17:27:37.058Z,22.70
2023-05-22T17:32:37.702Z,22.40
2023-05-22T17:37:35.113Z,22.30
2023-05-22T17:42:32.360Z,22.00
2023-05-22T17:47:29.723Z,21.80
2023-05-22T17:52:27.051Z,21.60
2023-05-22T17:57:26.165Z,21.40
2023-05-22T18:02:23.955Z,21.10
2023-05-22T18:07:21.423Z,20.80
2023-05-22T18:12:31.277Z,20.20
2023-05-22T18:17:29.257Z,20.00
2023-05-22T18:22:26.622Z,19.70
2023-05-22T18:27:24.033Z,19.50
2023-05-22T18:32:22.226Z,19.50
2023-05-22T18:37:20.329Z,19.40
2023-05-22T18:42:17.671Z,19.10
2023-05-22T18:47:15.568Z,19.40
2023-05-22T18:52:13.204Z,19.00
2023-05-22T18:57:10.515Z,18.90
2023-05-22T19:02:07.919Z,18.60
2023-05-22T19:07:08.113Z,18.20
2023-05-22T19:12:06.066Z,17.80
2023-05-22T19:17:06.586Z,17.90
2023-05-22T19:22:04.146Z,17.40
2023-05-22T19:27:01.586Z,17.60
2023-05-22T19:32:00.163Z,17.60
2023-05-22T19:36:57.993Z,17.40
2023-05-22T19:41:55.292Z,17.10
2023-05-22T19:46:57.779Z,16.90
2023-05-22T19:51:56.303Z,17.10
2023-05-22T19:56:53.876Z,17.20
2023-05-22T20:01:53.773Z,16.90
2023-05-22T20:06:51.245Z,16.30
2023-05-22T20:11:48.627Z,16.40
2023-05-22T20:16:46.123Z,15.70
2023-05-22T20:21:43.632Z,16.00
2023-05-22T20:26:41.253Z,15.70
2023-05-22T20:31:39.062Z,15.50
2023-05-22T20:36:40.051Z,16.00
2023-05-22T20:41:38.570Z,15.80
2023-05-22T20:46:36.606Z,15.70
2023-05-22T20:51:34.409Z,15.50
2023-05-22T20:56:31.741Z,15.40
2023-05-22T21:01:29.086Z,15.40
2023-05-22T21:06:26.340Z,15.10
2023-05-22T21:11:23.539Z,14.90
2023-05-22T21:16:20.917Z,15.30
2023-05-22T21:21:22.064Z,15.30
2023-05-22T21:26:22.424Z,15.20
2023-05-22T21:31:20.098Z,15.30
2023-05-22T21:36:17.444Z,15.40
2023-05-22T21:41:16.138Z,15.10
2023-05-22T21:46:13.714Z,14.80
2023-05-22T21:51:11.014Z,14.80
2023-05-22T21:56:09.317Z,14.80
2023-05-22T22:01:06.697Z,14.80
2023-05-22T22:06:04.431Z,14.70
2023-05-22T22:11:02.052Z,14.80
2023-05-22T22:15:59.632Z,14.80
2023-05-22T22:20:58.511Z,14.80
2023-05-22T22:25:56.334Z,14.40
2023-05-22T22:30:55.454Z,14.40
2023-05-22T22:35:52.846Z,14.30
2023-05-22T22:40:50.225Z,14.40
2023-05-22T22:45:47.700Z,14.60
2023-05-22T22:50:47.094Z,14.00
2023-05-22T22:55:44.568Z,14.00
2023-05-22T23:00:43.633Z,14.30
2023-05-22T23:05:41.239Z,14.40
2023-05-22T23:10:39.559Z,14.50
2023-05-22T23:15:36.840Z,14.10
2023-05-22T23:20:34.559Z,14.00
2023-05-22T23:25:35.021Z,14.20
2023-05-22T23:30:37.528Z,14.10
2023-05-22T23:35:35.509Z,14.30
2023-05-22T23:40:33.115Z,14.30
2023-05-22T23:45:31.451Z,14.00
2023-05-22T23:50:29.412Z,13.80
2023-05-22T23:55:27.086Z,13.70
